sensor_id;sensor_type;location;lat;lon;timestamp;P1;durP1;ratioP1;P2;durP2;ratioP2
20090;SDS011;10205;49.678;6.560;2022-12-13T00:01:29;11.30;;;8.37;;
20090;SDS011;10205;49.678;6.560;2022-12-13T00:04:03;13.17;;;9.20;;
20090;SDS011;10205;49.678;6.560;2022-12-13T00:06:33;11.80;;;8.23;;
20090;SDS011;10205;49.678;6.560;2022-12-13T00:09:01;12.23;;;8.47;;
20090;SDS011;10205;49.678;6.560;2022-12-13T00:11:29;11.20;;;8.13;;
20090;SDS011;10205;49.678;6.560;2022-12-13T00:13:57;14.43;;;8.97;;
20090;SDS011;10205;49.678;6.560;2022-12-13T00:16:25;12.13;;;9.30;;
20090;SDS011;10205;49.678;6.560;2022-12-13T00:18:54;13.07;;;9.07;;
20090;SDS011;10205;49.678;6.560;2022-12-13T00:21:27;12.77;;;9.73;;
20090;SDS011;10205;49.678;6.560;2022-12-13T00:23:58;14.00;;;9.73;;
20090;SDS011;10205;49.678;6.560;2022-12-13T00:26:27;12.53;;;9.30;;
20090;SDS011;10205;49.678;6.560;2022-12-13T00:28:57;11.70;;;8.80;;
20090;SDS011;10205;49.678;6.560;2022-12-13T00:31:25;12.30;;;8.93;;
20090;SDS011;10205;49.678;6.560;2022-12-13T00:33:55;13.33;;;9.53;;
20090;SDS011;10205;49.678;6.560;2022-12-13T00:36:23;14.27;;;10.07;;
20090;SDS011;10205;49.678;6.560;2022-12-13T00:38:52;12.87;;;9.20;;
20090;SDS011;10205;49.678;6.560;2022-12-13T00:41:26;16.07;;;9.70;;
20090;SDS011;10205;49.678;6.560;2022-12-13T00:43:56;12.60;;;8.87;;
20090;SDS011;10205;49.678;6.560;2022-12-13T00:46:24;16.00;;;10.10;;
20090;SDS011;10205;49.678;6.560;2022-12-13T00:48:54;13.70;;;10.03;;
20090;SDS011;10205;49.678;6.560;2022-12-13T00:51:23;14.17;;;10.10;;
20090;SDS011;10205;49.678;6.560;2022-12-13T00:53:53;14.07;;;10.00;;
20090;SDS011;10205;49.678;6.560;2022-12-13T00:56:22;15.67;;;10.73;;
20090;SDS011;10205;49.678;6.560;2022-12-13T00:58:53;13.50;;;9.97;;
20090;SDS011;10205;49.678;6.560;2022-12-13T01:01:22;16.73;;;11.53;;
20090;SDS011;10205;49.678;6.560;2022-12-13T01:03:52;14.70;;;10.70;;
20090;SDS011;10205;49.678;6.560;2022-12-13T01:06:26;15.97;;;10.50;;
20090;SDS011;10205;49.678;6.560;2022-12-13T01:09:00;15.43;;;10.93;;
20090;SDS011;10205;49.678;6.560;2022-12-13T01:11:28;15.17;;;10.87;;
20090;SDS011;10205;49.678;6.560;2022-12-13T01:13:55;14.07;;;10.33;;
20090;SDS011;10205;49.678;6.560;2022-12-13T01:16:23;14.63;;;10.10;;
20090;SDS011;10205;49.678;6.560;2022-12-13T01:18:50;14.30;;;9.70;;
20090;SDS011;10205;49.678;6.560;2022-12-13T01:21:18;12.57;;;9.73;;
20090;SDS011;10205;49.678;6.560;2022-12-13T01:23:45;12.47;;;9.63;;
20090;SDS011;10205;49.678;6.560;2022-12-13T01:26:16;12.40;;;9.30;;
20090;SDS011;10205;49.678;6.560;2022-12-13T01:28:45;14.80;;;10.40;;
20090;SDS011;10205;49.678;6.560;2022-12-13T01:31:14;12.77;;;9.50;;
20090;SDS011;10205;49.678;6.560;2022-12-13T01:33:46;16.80;;;11.73;;
20090;SDS011;10205;49.678;6.560;2022-12-13T01:36:15;13.90;;;9.80;;
20090;SDS011;10205;49.678;6.560;2022-12-13T01:38:45;14.43;;;10.33;;
20090;SDS011;10205;49.678;6.560;2022-12-13T01:41:12;13.63;;;10.17;;
20090;SDS011;10205;49.678;6.560;2022-12-13T01:43:51;14.03;;;10.50;;
20090;SDS011;10205;49.678;6.560;2022-12-13T01:46:24;15.30;;;10.30;;
20090;SDS011;10205;49.678;6.560;2022-12-13T01:48:57;15.27;;;9.87;;
20090;SDS011;10205;49.678;6.560;2022-12-13T01:51:31;13.30;;;9.77;;
20090;SDS011;10205;49.678;6.560;2022-12-13T01:54:05;15.60;;;10.83;;
20090;SDS011;10205;49.678;6.560;2022-12-13T01:56:42;14.40;;;9.97;;
20090;SDS011;10205;49.678;6.560;2022-12-13T01:59:14;15.00;;;10.57;;
20090;SDS011;10205;49.678;6.560;2022-12-13T02:01:45;13.07;;;9.93;;
20090;SDS011;10205;49.678;6.560;2022-12-13T02:04:15;14.77;;;10.07;;
20090;SDS011;10205;49.678;6.560;2022-12-13T02:06:56;14.57;;;10.23;;
20090;SDS011;10205;49.678;6.560;2022-12-13T02:09:24;15.80;;;10.70;;
20090;SDS011;10205;49.678;6.560;2022-12-13T02:11:54;15.93;;;10.20;;
20090;SDS011;10205;49.678;6.560;2022-12-13T02:14:21;13.10;;;9.67;;
20090;SDS011;10205;49.678;6.560;2022-12-13T02:16:51;14.23;;;10.30;;
20090;SDS011;10205;49.678;6.560;2022-12-13T02:19:48;13.20;;;10.00;;
20090;SDS011;10205;49.678;6.560;2022-12-13T02:22:55;13.03;;;9.77;;
20090;SDS011;10205;49.678;6.560;2022-12-13T02:25:53;13.07;;;8.97;;
20090;SDS011;10205;49.678;6.560;2022-12-13T02:29:07;14.20;;;10.23;;
20090;SDS011;10205;49.678;6.560;2022-12-13T02:32:06;13.53;;;9.67;;
20090;SDS011;10205;49.678;6.560;2022-12-13T02:34:43;11.80;;;9.27;;
20090;SDS011;10205;49.678;6.560;2022-12-13T02:37:22;12.80;;;8.70;;
20090;SDS011;10205;49.678;6.560;2022-12-13T02:39:57;13.40;;;9.67;;
20090;SDS011;10205;49.678;6.560;2022-12-13T02:42:33;14.10;;;9.87;;
20090;SDS011;10205;49.678;6.560;2022-12-13T02:45:15;12.57;;;9.70;;
20090;SDS011;10205;49.678;6.560;2022-12-13T02:47:53;11.73;;;9.10;;
20090;SDS011;10205;49.678;6.560;2022-12-13T02:50:25;12.37;;;9.87;;
20090;SDS011;10205;49.678;6.560;2022-12-13T02:52:55;12.60;;;9.27;;
20090;SDS011;10205;49.678;6.560;2022-12-13T02:55:23;13.23;;;10.03;;
20090;SDS011;10205;49.678;6.560;2022-12-13T02:57:51;11.87;;;8.70;;
20090;SDS011;10205;49.678;6.560;2022-12-13T03:00:19;13.93;;;9.40;;
20090;SDS011;10205;49.678;6.560;2022-12-13T03:02:56;16.00;;;9.90;;
20090;SDS011;10205;49.678;6.560;2022-12-13T03:05:39;12.97;;;9.23;;
20090;SDS011;10205;49.678;6.560;2022-12-13T03:08:37;12.83;;;9.37;;
20090;SDS011;10205;49.678;6.560;2022-12-13T03:11:19;11.80;;;9.13;;
20090;SDS011;10205;49.678;6.560;2022-12-13T03:13:51;13.27;;;9.10;;
20090;SDS011;10205;49.678;6.560;2022-12-13T03:16:25;14.97;;;9.67;;
20090;SDS011;10205;49.678;6.560;2022-12-13T03:19:03;13.30;;;9.83;;
20090;SDS011;10205;49.678;6.560;2022-12-13T03:21:36;12.60;;;8.50;;
20090;SDS011;10205;49.678;6.560;2022-12-13T03:24:07;13.10;;;9.90;;
20090;SDS011;10205;49.678;6.560;2022-12-13T03:26:35;13.37;;;8.77;;
20090;SDS011;10205;49.678;6.560;2022-12-13T03:29:04;12.73;;;9.10;;
20090;SDS011;10205;49.678;6.560;2022-12-13T03:31:34;12.20;;;8.97;;
20090;SDS011;10205;49.678;6.560;2022-12-13T03:34:02;13.57;;;9.57;;
20090;SDS011;10205;49.678;6.560;2022-12-13T03:36:29;12.50;;;9.33;;
20090;SDS011;10205;49.678;6.560;2022-12-13T03:38:57;12.93;;;8.57;;
20090;SDS011;10205;49.678;6.560;2022-12-13T03:41:25;12.07;;;9.27;;
20090;SDS011;10205;49.678;6.560;2022-12-13T03:43:57;13.17;;;10.03;;
20090;SDS011;10205;49.678;6.560;2022-12-13T03:46:24;12.63;;;9.07;;
20090;SDS011;10205;49.678;6.560;2022-12-13T03:48:51;12.90;;;9.13;;
20090;SDS011;10205;49.678;6.560;2022-12-13T03:51:20;12.17;;;8.47;;
20090;SDS011;10205;49.678;6.560;2022-12-13T03:53:47;11.33;;;8.37;;
20090;SDS011;10205;49.678;6.560;2022-12-13T03:56:14;12.87;;;8.63;;
20090;SDS011;10205;49.678;6.560;2022-12-13T03:58:42;13.67;;;9.80;;
20090;SDS011;10205;49.678;6.560;2022-12-13T04:01:10;13.70;;;9.33;;
20090;SDS011;10205;49.678;6.560;2022-12-13T04:03:40;12.40;;;8.87;;
20090;SDS011;10205;49.678;6.560;2022-12-13T04:06:12;14.23;;;8.73;;
20090;SDS011;10205;49.678;6.560;2022-12-13T04:08:41;12.73;;;8.90;;
20090;SDS011;10205;49.678;6.560;2022-12-13T04:11:09;12.80;;;9.30;;
20090;SDS011;10205;49.678;6.560;2022-12-13T04:13:54;15.57;;;10.30;;
20090;SDS011;10205;49.678;6.560;2022-12-13T04:16:22;15.40;;;10.13;;
20090;SDS011;10205;49.678;6.560;2022-12-13T04:18:50;14.97;;;9.97;;
20090;SDS011;10205;49.678;6.560;2022-12-13T04:21:18;15.03;;;10.10;;
20090;SDS011;10205;49.678;6.560;2022-12-13T04:23:47;11.87;;;9.73;;
20090;SDS011;10205;49.678;6.560;2022-12-13T04:26:14;13.77;;;9.73;;
20090;SDS011;10205;49.678;6.560;2022-12-13T04:28:41;15.03;;;9.80;;
20090;SDS011;10205;49.678;6.560;2022-12-13T04:31:10;12.87;;;9.30;;
20090;SDS011;10205;49.678;6.560;2022-12-13T04:33:37;13.10;;;9.53;;
20090;SDS011;10205;49.678;6.560;2022-12-13T04:36:04;14.33;;;9.70;;
20090;SDS011;10205;49.678;6.560;2022-12-13T04:38:32;12.80;;;9.50;;
20090;SDS011;10205;49.678;6.560;2022-12-13T04:41:07;12.07;;;8.87;;
20090;SDS011;10205;49.678;6.560;2022-12-13T04:43:41;12.53;;;8.77;;
20090;SDS011;10205;49.678;6.560;2022-12-13T04:46:08;14.60;;;9.80;;
20090;SDS011;10205;49.678;6.560;2022-12-13T04:48:36;13.23;;;9.50;;
20090;SDS011;10205;49.678;6.560;2022-12-13T04:51:03;11.50;;;8.77;;
20090;SDS011;10205;49.678;6.560;2022-12-13T04:53:31;13.93;;;9.73;;
20090;SDS011;10205;49.678;6.560;2022-12-13T04:55:58;13.00;;;9.47;;
20090;SDS011;10205;49.678;6.560;2022-12-13T04:58:30;15.27;;;11.07;;
20090;SDS011;10205;49.678;6.560;2022-12-13T05:00:57;15.60;;;10.90;;
20090;SDS011;10205;49.678;6.560;2022-12-13T05:03:24;15.73;;;10.33;;
20090;SDS011;10205;49.678;6.560;2022-12-13T05:05:52;14.60;;;10.43;;
20090;SDS011;10205;49.678;6.560;2022-12-13T05:08:19;18.07;;;11.17;;
20090;SDS011;10205;49.678;6.560;2022-12-13T05:10:47;17.87;;;12.43;;
20090;SDS011;10205;49.678;6.560;2022-12-13T05:13:14;17.07;;;11.30;;
20090;SDS011;10205;49.678;6.560;2022-12-13T05:15:43;16.80;;;11.10;;
20090;SDS011;10205;49.678;6.560;2022-12-13T05:18:10;15.47;;;10.83;;
20090;SDS011;10205;49.678;6.560;2022-12-13T05:20:37;15.83;;;12.00;;
20090;SDS011;10205;49.678;6.560;2022-12-13T05:23:06;13.83;;;9.63;;
20090;SDS011;10205;49.678;6.560;2022-12-13T05:25:33;15.80;;;11.40;;
20090;SDS011;10205;49.678;6.560;2022-12-13T05:28:01;16.40;;;11.63;;
20090;SDS011;10205;49.678;6.560;2022-12-13T05:30:28;15.37;;;11.43;;
20090;SDS011;10205;49.678;6.560;2022-12-13T05:32:57;18.47;;;12.43;;
20090;SDS011;10205;49.678;6.560;2022-12-13T05:35:24;15.97;;;10.37;;
20090;SDS011;10205;49.678;6.560;2022-12-13T05:37:52;17.70;;;11.60;;
20090;SDS011;10205;49.678;6.560;2022-12-13T05:40:19;16.30;;;10.87;;
20090;SDS011;10205;49.678;6.560;2022-12-13T05:42:46;19.83;;;12.80;;
20090;SDS011;10205;49.678;6.560;2022-12-13T05:45:13;15.67;;;11.53;;
20090;SDS011;10205;49.678;6.560;2022-12-13T05:47:42;17.57;;;12.70;;
20090;SDS011;10205;49.678;6.560;2022-12-13T05:50:12;18.90;;;12.13;;
20090;SDS011;10205;49.678;6.560;2022-12-13T05:52:41;16.40;;;11.70;;
20090;SDS011;10205;49.678;6.560;2022-12-13T05:55:09;16.20;;;11.03;;
20090;SDS011;10205;49.678;6.560;2022-12-13T05:57:37;17.10;;;12.03;;
20090;SDS011;10205;49.678;6.560;2022-12-13T06:00:05;18.40;;;11.37;;
20090;SDS011;10205;49.678;6.560;2022-12-13T06:02:36;18.40;;;11.90;;
20090;SDS011;10205;49.678;6.560;2022-12-13T06:05:04;17.27;;;11.53;;
20090;SDS011;10205;49.678;6.560;2022-12-13T06:07:35;18.13;;;12.53;;
20090;SDS011;10205;49.678;6.560;2022-12-13T06:10:03;17.77;;;13.07;;
20090;SDS011;10205;49.678;6.560;2022-12-13T06:12:32;19.70;;;11.87;;
20090;SDS011;10205;49.678;6.560;2022-12-13T06:15:00;17.67;;;12.80;;
20090;SDS011;10205;49.678;6.560;2022-12-13T06:17:31;20.00;;;12.93;;
20090;SDS011;10205;49.678;6.560;2022-12-13T06:20:00;18.53;;;12.57;;
20090;SDS011;10205;49.678;6.560;2022-12-13T06:22:29;17.80;;;12.83;;
20090;SDS011;10205;49.678;6.560;2022-12-13T06:24:59;19.57;;;12.97;;
20090;SDS011;10205;49.678;6.560;2022-12-13T06:27:26;18.80;;;12.77;;
20090;SDS011;10205;49.678;6.560;2022-12-13T06:29:54;17.53;;;12.47;;
20090;SDS011;10205;49.678;6.560;2022-12-13T06:32:21;20.43;;;12.70;;
20090;SDS011;10205;49.678;6.560;2022-12-13T06:34:48;21.70;;;14.73;;
20090;SDS011;10205;49.678;6.560;2022-12-13T06:37:15;19.47;;;13.43;;
20090;SDS011;10205;49.678;6.560;2022-12-13T06:39:43;19.97;;;13.13;;
20090;SDS011;10205;49.678;6.560;2022-12-13T06:42:14;19.10;;;12.67;;
20090;SDS011;10205;49.678;6.560;2022-12-13T06:44:43;21.17;;;13.47;;
20090;SDS011;10205;49.678;6.560;2022-12-13T06:47:11;21.93;;;14.40;;
20090;SDS011;10205;49.678;6.560;2022-12-13T06:49:39;21.73;;;13.87;;
20090;SDS011;10205;49.678;6.560;2022-12-13T06:52:08;22.23;;;14.20;;
20090;SDS011;10205;49.678;6.560;2022-12-13T06:54:37;19.97;;;13.33;;
20090;SDS011;10205;49.678;6.560;2022-12-13T06:57:04;21.37;;;14.20;;
20090;SDS011;10205;49.678;6.560;2022-12-13T06:59:33;20.37;;;13.67;;
20090;SDS011;10205;49.678;6.560;2022-12-13T07:02:01;22.50;;;14.63;;
20090;SDS011;10205;49.678;6.560;2022-12-13T07:04:28;22.13;;;13.20;;
20090;SDS011;10205;49.678;6.560;2022-12-13T07:06:55;21.83;;;14.80;;
20090;SDS011;10205;49.678;6.560;2022-12-13T07:09:22;22.13;;;14.07;;
20090;SDS011;10205;49.678;6.560;2022-12-13T07:11:50;20.27;;;13.63;;
20090;SDS011;10205;49.678;6.560;2022-12-13T07:14:17;21.27;;;14.03;;
20090;SDS011;10205;49.678;6.560;2022-12-13T07:16:46;17.53;;;13.20;;
20090;SDS011;10205;49.678;6.560;2022-12-13T07:19:13;22.00;;;14.07;;
20090;SDS011;10205;49.678;6.560;2022-12-13T07:21:40;18.90;;;12.97;;
20090;SDS011;10205;49.678;6.560;2022-12-13T07:24:08;22.03;;;14.03;;
20090;SDS011;10205;49.678;6.560;2022-12-13T07:26:35;23.00;;;14.43;;
20090;SDS011;10205;49.678;6.560;2022-12-13T07:29:03;20.93;;;13.90;;
20090;SDS011;10205;49.678;6.560;2022-12-13T07:31:30;24.80;;;15.23;;
20090;SDS011;10205;49.678;6.560;2022-12-13T07:34:02;18.17;;;12.80;;
20090;SDS011;10205;49.678;6.560;2022-12-13T07:36:30;23.17;;;14.07;;
20090;SDS011;10205;49.678;6.560;2022-12-13T07:38:57;18.40;;;13.70;;
20090;SDS011;10205;49.678;6.560;2022-12-13T07:41:25;21.40;;;13.80;;
20090;SDS011;10205;49.678;6.560;2022-12-13T07:43:53;22.33;;;14.23;;
20090;SDS011;10205;49.678;6.560;2022-12-13T07:46:21;19.37;;;13.37;;
20090;SDS011;10205;49.678;6.560;2022-12-13T07:48:50;21.90;;;13.80;;
20090;SDS011;10205;49.678;6.560;2022-12-13T07:51:18;20.53;;;14.17;;
20090;SDS011;10205;49.678;6.560;2022-12-13T07:53:46;20.43;;;13.87;;
20090;SDS011;10205;49.678;6.560;2022-12-13T07:56:13;20.90;;;13.53;;
20090;SDS011;10205;49.678;6.560;2022-12-13T07:58:41;20.20;;;14.03;;
20090;SDS011;10205;49.678;6.560;2022-12-13T08:01:10;19.87;;;13.40;;
20090;SDS011;10205;49.678;6.560;2022-12-13T08:03:37;19.33;;;13.97;;
20090;SDS011;10205;49.678;6.560;2022-12-13T08:06:05;20.83;;;14.17;;
20090;SDS011;10205;49.678;6.560;2022-12-13T08:08:37;21.53;;;14.37;;
20090;SDS011;10205;49.678;6.560;2022-12-13T08:11:05;22.27;;;14.70;;
20090;SDS011;10205;49.678;6.560;2022-12-13T08:13:34;20.70;;;13.23;;
20090;SDS011;10205;49.678;6.560;2022-12-13T08:16:03;21.67;;;13.73;;
20090;SDS011;10205;49.678;6.560;2022-12-13T08:18:36;23.47;;;15.17;;
20090;SDS011;10205;49.678;6.560;2022-12-13T08:21:04;22.93;;;14.53;;
20090;SDS011;10205;49.678;6.560;2022-12-13T08:23:33;24.27;;;14.43;;
20090;SDS011;10205;49.678;6.560;2022-12-13T08:26:06;18.77;;;13.80;;
20090;SDS011;10205;49.678;6.560;2022-12-13T08:28:34;20.20;;;14.23;;
20090;SDS011;10205;49.678;6.560;2022-12-13T08:31:02;22.30;;;14.60;;
20090;SDS011;10205;49.678;6.560;2022-12-13T08:33:32;26.77;;;16.93;;
20090;SDS011;10205;49.678;6.560;2022-12-13T08:36:06;22.07;;;14.70;;
20090;SDS011;10205;49.678;6.560;2022-12-13T08:38:35;21.97;;;14.77;;
20090;SDS011;10205;49.678;6.560;2022-12-13T08:41:02;23.93;;;15.57;;
20090;SDS011;10205;49.678;6.560;2022-12-13T08:43:31;21.50;;;14.77;;
20090;SDS011;10205;49.678;6.560;2022-12-13T08:45:59;23.10;;;13.90;;
20090;SDS011;10205;49.678;6.560;2022-12-13T08:48:26;21.03;;;13.63;;
20090;SDS011;10205;49.678;6.560;2022-12-13T08:51:00;21.27;;;13.70;;
20090;SDS011;10205;49.678;6.560;2022-12-13T08:53:29;23.73;;;14.43;;
20090;SDS011;10205;49.678;6.560;2022-12-13T08:55:58;25.10;;;15.47;;
20090;SDS011;10205;49.678;6.560;2022-12-13T08:58:26;20.80;;;14.27;;
20090;SDS011;10205;49.678;6.560;2022-12-13T09:00:55;22.77;;;13.90;;
20090;SDS011;10205;49.678;6.560;2022-12-13T09:03:23;19.57;;;12.93;;
20090;SDS011;10205;49.678;6.560;2022-12-13T09:05:50;24.20;;;14.40;;
20090;SDS011;10205;49.678;6.560;2022-12-13T09:08:17;22.00;;;14.87;;
20090;SDS011;10205;49.678;6.560;2022-12-13T09:10:45;22.77;;;14.77;;
20090;SDS011;10205;49.678;6.560;2022-12-13T09:13:21;21.30;;;13.83;;
20090;SDS011;10205;49.678;6.560;2022-12-13T09:15:48;22.67;;;14.27;;
20090;SDS011;10205;49.678;6.560;2022-12-13T09:18:17;20.83;;;13.43;;
20090;SDS011;10205;49.678;6.560;2022-12-13T09:20:44;21.73;;;13.60;;
20090;SDS011;10205;49.678;6.560;2022-12-13T09:23:11;28.30;;;16.63;;
20090;SDS011;10205;49.678;6.560;2022-12-13T09:25:39;23.50;;;14.70;;
20090;SDS011;10205;49.678;6.560;2022-12-13T09:28:08;20.90;;;14.47;;
20090;SDS011;10205;49.678;6.560;2022-12-13T09:30:36;24.03;;;14.80;;
20090;SDS011;10205;49.678;6.560;2022-12-13T09:33:04;21.33;;;13.83;;
20090;SDS011;10205;49.678;6.560;2022-12-13T09:35:33;21.43;;;14.17;;
20090;SDS011;10205;49.678;6.560;2022-12-13T09:38:03;22.57;;;14.07;;
20090;SDS011;10205;49.678;6.560;2022-12-13T09:40:30;26.43;;;14.83;;
20090;SDS011;10205;49.678;6.560;2022-12-13T09:43:00;23.13;;;14.93;;
20090;SDS011;10205;49.678;6.560;2022-12-13T09:45:29;19.83;;;13.33;;
20090;SDS011;10205;49.678;6.560;2022-12-13T09:47:58;21.87;;;14.47;;
20090;SDS011;10205;49.678;6.560;2022-12-13T09:50:27;22.50;;;14.50;;
20090;SDS011;10205;49.678;6.560;2022-12-13T09:52:59;23.20;;;15.10;;
20090;SDS011;10205;49.678;6.560;2022-12-13T09:55:37;22.67;;;14.60;;
20090;SDS011;10205;49.678;6.560;2022-12-13T09:58:12;23.40;;;14.70;;
20090;SDS011;10205;49.678;6.560;2022-12-13T10:00:47;23.57;;;15.40;;
20090;SDS011;10205;49.678;6.560;2022-12-13T10:03:19;23.77;;;15.77;;
20090;SDS011;10205;49.678;6.560;2022-12-13T10:05:51;24.53;;;16.00;;
20090;SDS011;10205;49.678;6.560;2022-12-13T10:08:26;24.20;;;15.07;;
20090;SDS011;10205;49.678;6.560;2022-12-13T10:11:01;22.80;;;14.80;;
20090;SDS011;10205;49.678;6.560;2022-12-13T10:13:37;23.70;;;15.33;;
20090;SDS011;10205;49.678;6.560;2022-12-13T10:16:13;22.77;;;14.33;;
20090;SDS011;10205;49.678;6.560;2022-12-13T10:18:50;21.43;;;14.13;;
20090;SDS011;10205;49.678;6.560;2022-12-13T10:21:20;22.57;;;14.80;;
20090;SDS011;10205;49.678;6.560;2022-12-13T10:23:54;23.33;;;14.03;;
20090;SDS011;10205;49.678;6.560;2022-12-13T10:26:33;23.30;;;15.20;;
20090;SDS011;10205;49.678;6.560;2022-12-13T10:29:02;22.03;;;14.83;;
20090;SDS011;10205;49.678;6.560;2022-12-13T10:31:37;25.30;;;15.13;;
20090;SDS011;10205;49.678;6.560;2022-12-13T10:34:12;21.20;;;14.60;;
20090;SDS011;10205;49.678;6.560;2022-12-13T10:36:47;24.20;;;14.63;;
20090;SDS011;10205;49.678;6.560;2022-12-13T10:39:17;22.53;;;14.17;;
20090;SDS011;10205;49.678;6.560;2022-12-13T10:42:03;22.97;;;15.10;;
20090;SDS011;10205;49.678;6.560;2022-12-13T10:44:32;21.73;;;14.97;;
20090;SDS011;10205;49.678;6.560;2022-12-13T10:47:03;21.27;;;13.80;;
20090;SDS011;10205;49.678;6.560;2022-12-13T10:49:45;21.57;;;13.93;;
20090;SDS011;10205;49.678;6.560;2022-12-13T10:52:21;21.80;;;14.70;;
20090;SDS011;10205;49.678;6.560;2022-12-13T10:54:55;19.83;;;13.67;;
20090;SDS011;10205;49.678;6.560;2022-12-13T10:57:26;24.13;;;15.70;;
20090;SDS011;10205;49.678;6.560;2022-12-13T10:59:53;21.97;;;14.37;;
20090;SDS011;10205;49.678;6.560;2022-12-13T11:02:31;20.90;;;13.10;;
20090;SDS011;10205;49.678;6.560;2022-12-13T11:05:19;20.13;;;13.33;;
20090;SDS011;10205;49.678;6.560;2022-12-13T11:07:51;21.87;;;13.67;;
20090;SDS011;10205;49.678;6.560;2022-12-13T11:10:23;21.03;;;12.80;;
20090;SDS011;10205;49.678;6.560;2022-12-13T11:12:58;21.57;;;14.53;;
20090;SDS011;10205;49.678;6.560;2022-12-13T11:15:28;23.07;;;14.20;;
20090;SDS011;10205;49.678;6.560;2022-12-13T11:18:01;24.47;;;13.50;;
20090;SDS011;10205;49.678;6.560;2022-12-13T11:20:33;22.10;;;13.87;;
20090;SDS011;10205;49.678;6.560;2022-12-13T11:23:03;21.97;;;13.70;;
20090;SDS011;10205;49.678;6.560;2022-12-13T11:25:37;20.00;;;12.33;;
20090;SDS011;10205;49.678;6.560;2022-12-13T11:28:20;23.63;;;14.50;;
20090;SDS011;10205;49.678;6.560;2022-12-13T11:31:09;23.03;;;13.53;;
20090;SDS011;10205;49.678;6.560;2022-12-13T11:33:50;21.70;;;14.33;;
20090;SDS011;10205;49.678;6.560;2022-12-13T11:36:31;24.63;;;15.53;;
20090;SDS011;10205;49.678;6.560;2022-12-13T11:39:13;27.40;;;15.00;;
20090;SDS011;10205;49.678;6.560;2022-12-13T11:42:03;20.77;;;13.00;;
20090;SDS011;10205;49.678;6.560;2022-12-13T11:44:49;25.13;;;14.10;;
20090;SDS011;10205;49.678;6.560;2022-12-13T11:47:29;21.13;;;14.23;;
20090;SDS011;10205;49.678;6.560;2022-12-13T11:50:11;23.80;;;16.40;;
20090;SDS011;10205;49.678;6.560;2022-12-13T11:52:43;21.37;;;12.53;;
20090;SDS011;10205;49.678;6.560;2022-12-13T11:55:18;24.23;;;13.53;;
20090;SDS011;10205;49.678;6.560;2022-12-13T11:57:55;21.23;;;14.17;;
20090;SDS011;10205;49.678;6.560;2022-12-13T12:00:31;19.40;;;13.27;;
20090;SDS011;10205;49.678;6.560;2022-12-13T12:03:05;21.00;;;12.73;;
20090;SDS011;10205;49.678;6.560;2022-12-13T12:05:44;20.60;;;11.87;;
20090;SDS011;10205;49.678;6.560;2022-12-13T12:08:18;18.27;;;12.40;;
20090;SDS011;10205;49.678;6.560;2022-12-13T12:10:56;17.77;;;11.37;;
20090;SDS011;10205;49.678;6.560;2022-12-13T12:13:35;19.60;;;12.70;;
20090;SDS011;10205;49.678;6.560;2022-12-13T12:16:09;21.00;;;12.23;;
20090;SDS011;10205;49.678;6.560;2022-12-13T12:18:46;22.10;;;11.17;;
20090;SDS011;10205;49.678;6.560;2022-12-13T12:21:18;18.77;;;11.40;;
20090;SDS011;10205;49.678;6.560;2022-12-13T12:24:03;17.90;;;11.23;;
20090;SDS011;10205;49.678;6.560;2022-12-13T12:26:48;20.47;;;11.90;;
20090;SDS011;10205;49.678;6.560;2022-12-13T12:29:45;20.17;;;11.50;;
20090;SDS011;10205;49.678;6.560;2022-12-13T12:32:40;19.07;;;11.40;;
20090;SDS011;10205;49.678;6.560;2022-12-13T12:35:28;20.23;;;12.00;;
20090;SDS011;10205;49.678;6.560;2022-12-13T12:38:21;20.83;;;11.13;;
20090;SDS011;10205;49.678;6.560;2022-12-13T12:41:23;20.60;;;10.90;;
20090;SDS011;10205;49.678;6.560;2022-12-13T12:44:08;17.23;;;10.73;;
20090;SDS011;10205;49.678;6.560;2022-12-13T12:46:52;18.17;;;10.43;;
20090;SDS011;10205;49.678;6.560;2022-12-13T12:53:01;16.90;;;10.43;;
20090;SDS011;10205;49.678;6.560;2022-12-13T12:55:50;18.37;;;11.40;;
20090;SDS011;10205;49.678;6.560;2022-12-13T12:58:34;18.63;;;12.17;;
20090;SDS011;10205;49.678;6.560;2022-12-13T13:01:13;16.87;;;10.30;;
20090;SDS011;10205;49.678;6.560;2022-12-13T13:03:53;17.90;;;11.03;;
20090;SDS011;10205;49.678;6.560;2022-12-13T13:06:25;16.40;;;10.43;;
20090;SDS011;10205;49.678;6.560;2022-12-13T13:08:59;23.27;;;10.93;;
20090;SDS011;10205;49.678;6.560;2022-12-13T13:11:32;19.27;;;11.47;;
20090;SDS011;10205;49.678;6.560;2022-12-13T13:14:23;17.37;;;11.17;;
20090;SDS011;10205;49.678;6.560;2022-12-13T13:16:56;18.57;;;10.20;;
20090;SDS011;10205;49.678;6.560;2022-12-13T13:19:52;17.83;;;10.60;;
20090;SDS011;10205;49.678;6.560;2022-12-13T13:22:36;18.03;;;9.70;;
20090;SDS011;10205;49.678;6.560;2022-12-13T13:25:21;16.20;;;10.17;;
20090;SDS011;10205;49.678;6.560;2022-12-13T13:33:42;14.13;;;9.23;;
20090;SDS011;10205;49.678;6.560;2022-12-13T13:39:35;21.03;;;11.90;;
20090;SDS011;10205;49.678;6.560;2022-12-13T13:42:22;16.77;;;9.70;;
20090;SDS011;10205;49.678;6.560;2022-12-13T13:44:55;22.17;;;9.67;;
20090;SDS011;10205;49.678;6.560;2022-12-13T13:47:51;16.60;;;9.53;;
20090;SDS011;10205;49.678;6.560;2022-12-13T13:54:39;17.90;;;8.83;;
20090;SDS011;10205;49.678;6.560;2022-12-13T13:57:51;16.87;;;8.97;;
20090;SDS011;10205;49.678;6.560;2022-12-13T14:01:15;13.27;;;8.17;;
20090;SDS011;10205;49.678;6.560;2022-12-13T14:04:37;14.50;;;9.10;;
20090;SDS011;10205;49.678;6.560;2022-12-13T14:08:07;13.77;;;8.70;;
20090;SDS011;10205;49.678;6.560;2022-12-13T14:14:01;12.43;;;8.00;;
20090;SDS011;10205;49.678;6.560;2022-12-13T14:17:32;13.10;;;8.13;;
20090;SDS011;10205;49.678;6.560;2022-12-13T14:20:48;13.27;;;8.20;;
20090;SDS011;10205;49.678;6.560;2022-12-13T14:23:34;13.00;;;8.33;;
20090;SDS011;10205;49.678;6.560;2022-12-13T14:26:26;17.30;;;8.13;;
20090;SDS011;10205;49.678;6.560;2022-12-13T14:29:09;15.70;;;8.07;;
20090;SDS011;10205;49.678;6.560;2022-12-13T14:31:41;14.90;;;8.27;;
20090;SDS011;10205;49.678;6.560;2022-12-13T14:34:16;14.37;;;7.93;;
20090;SDS011;10205;49.678;6.560;2022-12-13T14:36:56;16.17;;;8.07;;
20090;SDS011;10205;49.678;6.560;2022-12-13T14:39:25;14.90;;;8.37;;
20090;SDS011;10205;49.678;6.560;2022-12-13T14:41:58;16.67;;;8.57;;
20090;SDS011;10205;49.678;6.560;2022-12-13T14:44:29;22.23;;;8.40;;
20090;SDS011;10205;49.678;6.560;2022-12-13T14:46:59;17.90;;;9.53;;
20090;SDS011;10205;49.678;6.560;2022-12-13T14:49:30;12.30;;;8.23;;
20090;SDS011;10205;49.678;6.560;2022-12-13T14:52:04;17.63;;;8.93;;
20090;SDS011;10205;49.678;6.560;2022-12-13T14:54:37;12.43;;;8.10;;
20090;SDS011;10205;49.678;6.560;2022-12-13T14:57:13;17.33;;;7.67;;
20090;SDS011;10205;49.678;6.560;2022-12-13T14:59:44;10.97;;;7.80;;
20090;SDS011;10205;49.678;6.560;2022-12-13T15:02:14;11.30;;;7.30;;
20090;SDS011;10205;49.678;6.560;2022-12-13T15:04:43;11.97;;;7.17;;
20090;SDS011;10205;49.678;6.560;2022-12-13T15:07:13;11.50;;;7.80;;
20090;SDS011;10205;49.678;6.560;2022-12-13T15:09:52;11.07;;;6.77;;
20090;SDS011;10205;49.678;6.560;2022-12-13T15:12:24;13.27;;;7.17;;
20090;SDS011;10205;49.678;6.560;2022-12-13T15:14:55;15.37;;;6.43;;
20090;SDS011;10205;49.678;6.560;2022-12-13T15:21:19;14.07;;;7.70;;
20090;SDS011;10205;49.678;6.560;2022-12-13T15:23:49;10.43;;;6.97;;
20090;SDS011;10205;49.678;6.560;2022-12-13T15:26:19;12.20;;;7.33;;